Time;durP1;ratioP1;P1;durP2;ratioP2;P2;SDS_P1;SDS_P2;PMS_P1;PMS_P2;Temp;Humidity;BMP_temperature;BMP_pressure;BME280_temperature;BME280_humidity;BME280_pressure;Samples;Min_cycle;Max_cycle;Signal;HPM_P1;HPM_P2
2022/03/27 05:00:36;;;;;;;23.00;15.17;;;7.90;97.20;;;;;;1700729;29;20896;-70
2022/03/27 05:01:28;;;;;;;20.17;14.98;;;7.90;97.20;;;;;;1700545;29;20203;-70
2022/03/27 05:02:20;;;;;;;23.30;15.53;;;7.90;97.20;;;;;;1700597;29;20246;-70
2022/03/27 05:03:11;;;;;;;20.38;14.35;;;7.90;97.20;;;;;;1700634;29;20249;-69
2022/03/27 05:04:03;;;;;;;21.80;14.63;;;7.80;97.20;;;;;;1700510;29;20207;-70
2022/03/27 05:04:54;;;;;;;22.05;14.85;;;7.80;97.20;;;;;;1700485;29;20282;-70
2022/03/27 05:05:46;;;;;;;26.43;15.00;;;7.80;97.20;;;;;;1700655;29;20199;-70
2022/03/27 05:06:37;;;;;;;21.50;14.63;;;7.80;97.20;;;;;;1700617;29;20231;-70
2022/03/27 05:07:28;;;;;;;18.80;15.27;;;7.80;97.20;;;;;;1700615;29;20663;-70
2022/03/27 05:08:20;;;;;;;20.70;13.65;;;7.80;97.20;;;;;;1700321;29;20663;-70
2022/03/27 05:09:12;;;;;;;19.83;13.93;;;7.80;97.20;;;;;;1700518;29;20218;-70
2022/03/27 05:10:03;;;;;;;19.15;14.30;;;7.80;97.20;;;;;;1700551;29;20206;-70
2022/03/27 05:10:55;;;;;;;18.70;13.45;;;7.80;97.20;;;;;;1701521;29;20254;-70
2022/03/27 05:11:46;;;;;;;19.40;14.38;;;7.80;97.20;;;;;;1700550;29;20625;-70
2022/03/27 05:12:38;;;;;;;19.77;14.10;;;7.80;97.20;;;;;;1700544;29;20243;-70
2022/03/27 05:13:29;;;;;;;19.10;13.40;;;7.80;97.20;;;;;;1700520;29;20235;-70
2022/03/27 05:14:20;;;;;;;24.37;15.40;;;7.80;97.20;;;;;;1700644;29;20203;-69
2022/03/27 05:15:12;;;;;;;19.65;13.45;;;7.80;97.20;;;;;;1700478;29;20522;-70
2022/03/27 05:16:06;;;;;;;21.08;15.15;;;7.90;97.20;;;;;;1700601;29;20203;-70
2022/03/27 05:16:56;;;;;;;17.40;13.10;;;7.90;97.20;;;;;;1700691;29;20282;-70
2022/03/27 05:17:51;;;;;;;18.10;13.30;;;7.90;97.20;;;;;;1700550;29;20211;-70
2022/03/27 05:18:42;;;;;;;17.70;13.43;;;7.90;97.20;;;;;;1700241;29;20439;-70
2022/03/27 05:19:34;;;;;;;19.83;13.57;;;7.90;97.20;;;;;;1700493;29;20275;-70
2022/03/27 05:20:27;;;;;;;15.82;13.43;;;7.90;97.20;;;;;;1700595;29;20688;-70
2022/03/27 05:21:20;;;;;;;17.80;14.32;;;7.90;97.20;;;;;;1700588;29;20278;-69
2022/03/27 05:22:11;;;;;;;16.02;14.25;;;7.90;97.20;;;;;;1700540;29;20238;-70
2022/03/27 05:23:03;;;;;;;23.60;14.60;;;7.90;97.20;;;;;;1700593;29;20215;-70
2022/03/27 05:23:53;;;;;;;20.55;14.55;;;7.90;97.20;;;;;;1700629;29;20234;-70
2022/03/27 05:24:46;;;;;;;18.03;14.17;;;7.90;97.20;;;;;;1700484;29;20234;-70
2022/03/27 05:25:40;;;;;;;22.05;14.10;;;7.90;97.20;;;;;;1700546;29;20305;-70
2022/03/27 05:26:32;;;;;;;22.80;14.65;;;7.90;97.20;;;;;;1700482;29;20196;-70
2022/03/27 05:27:23;;;;;;;20.65;13.70;;;7.90;97.20;;;;;;1701552;29;20260;-70
2022/03/27 05:28:15;;;;;;;20.63;14.13;;;7.80;97.20;;;;;;1700213;29;20195;-70
2022/03/27 05:29:08;;;;;;;26.00;13.40;;;7.80;97.20;;;;;;1700478;29;20294;-70
2022/03/27 05:29:59;;;;;;;18.38;13.25;;;7.80;97.20;;;;;;1700498;29;20230;-70
2022/03/27 05:30:51;;;;;;;18.52;12.88;;;7.80;97.20;;;;;;1700510;29;20203;-70
2022/03/27 05:31:45;;;;;;;18.05;13.30;;;7.80;97.20;;;;;;1700537;29;20258;-70
2022/03/27 05:32:36;;;;;;;19.98;13.70;;;7.80;97.20;;;;;;1700492;29;20346;-70
2022/03/27 05:33:27;;;;;;;18.83;13.07;;;7.80;97.20;;;;;;1700532;29;20242;-70
2022/03/27 05:34:19;;;;;;;18.87;14.23;;;7.80;97.20;;;;;;1700550;29;20203;-70
2022/03/27 05:35:10;;;;;;;19.58;12.90;;;7.80;97.20;;;;;;1700431;29;20223;-70
2022/03/27 05:36:01;;;;;;;25.07;14.27;;;7.80;97.20;;;;;;1700537;29;20210;-70
2022/03/27 05:36:52;;;;;;;21.52;13.48;;;7.80;97.20;;;;;;1700544;29;20452;-69
2022/03/27 05:37:46;;;;;;;19.40;13.30;;;7.80;97.20;;;;;;1700510;29;20682;-70
2022/03/27 05:38:38;;;;;;;15.43;13.20;;;7.80;97.20;;;;;;1700262;29;20239;-70
2022/03/27 05:39:29;;;;;;;18.00;13.60;;;7.90;97.20;;;;;;1700370;29;20203;-70
2022/03/27 05:40:22;;;;;;;18.30;13.75;;;7.90;97.20;;;;;;1700467;29;20207;-70
2022/03/27 05:41:14;;;;;;;19.75;13.93;;;7.90;97.20;;;;;;1700451;29;20199;-70
2022/03/27 05:42:05;;;;;;;25.55;15.43;;;7.90;97.20;;;;;;1700545;29;20656;-70
2022/03/27 05:42:57;;;;;;;20.35;14.10;;;7.90;97.20;;;;;;1700496;29;20203;-70
2022/03/27 05:43:48;;;;;;;15.90;12.90;;;7.90;97.20;;;;;;1701465;29;20208;-70
2022/03/27 05:44:40;;;;;;;21.23;13.50;;;7.90;97.20;;;;;;1700392;29;20199;-70
2022/03/27 05:45:31;;;;;;;26.17;14.18;;;7.90;97.20;;;;;;1700477;29;20237;-70
2022/03/27 05:46:23;;;;;;;16.45;13.90;;;7.90;97.20;;;;;;1700478;29;20215;-70
2022/03/27 05:47:15;;;;;;;21.25;14.32;;;7.90;97.20;;;;;;1700553;29;20253;-71
2022/03/27 05:48:07;;;;;;;18.02;12.88;;;7.90;97.20;;;;;;1700215;29;20735;-70
2022/03/27 05:48:57;;;;;;;16.98;13.30;;;7.90;97.20;;;;;;1700715;29;20199;-70
2022/03/27 05:49:49;;;;;;;19.37;13.80;;;7.90;97.20;;;;;;1700563;29;20209;-70
2022/03/27 05:50:40;;;;;;;18.10;14.05;;;7.90;97.20;;;;;;1700575;29;20735;-70
2022/03/27 05:51:32;;;;;;;16.08;13.10;;;7.90;97.20;;;;;;1701662;29;20221;-70
2022/03/27 05:52:23;;;;;;;16.88;12.68;;;8.00;97.20;;;;;;1701649;29;20234;-70
2022/03/27 05:53:15;;;;;;;20.10;13.87;;;8.00;97.20;;;;;;1701875;29;20203;-70
2022/03/27 05:54:06;;;;;;;17.13;14.20;;;8.00;97.20;;;;;;1701756;29;20530;-70
2022/03/27 05:54:58;;;;;;;21.43;13.80;;;8.00;97.20;;;;;;1701693;29;20218;-70
2022/03/27 05:55:50;;;;;;;22.17;14.38;;;8.00;97.20;;;;;;1701558;29;20215;-70
2022/03/27 05:56:41;;;;;;;22.55;14.85;;;8.00;97.20;;;;;;1701666;29;20207;-70
2022/03/27 05:57:33;;;;;;;17.37;13.33;;;8.10;97.20;;;;;;1701625;29;20211;-70
2022/03/27 05:58:23;;;;;;;22.02;15.20;;;8.10;97.20;;;;;;1701284;29;20281;-70
2022/03/27 05:59:16;;;;;;;22.97;15.17;;;8.10;97.20;;;;;;1701571;29;20207;-70
2022/03/27 06:00:09;;;;;;;16.98;13.98;;;8.20;97.20;;;;;;1702620;29;20455;-70
2022/03/27 06:01:00;;;;;;;18.98;14.65;;;8.20;97.20;;;;;;1701634;29;20221;-70
2022/03/27 06:01:51;;;;;;;19.95;15.68;;;8.20;97.20;;;;;;1701552;29;20211;-70
2022/03/27 06:02:44;;;;;;;21.93;15.60;;;8.20;97.20;;;;;;1701634;29;20211;-70
2022/03/27 06:03:35;;;;;;;23.27;14.75;;;8.30;97.20;;;;;;1701588;29;20207;-69
2022/03/27 06:04:27;;;;;;;24.50;15.13;;;8.30;97.20;;;;;;1701466;29;20203;-70
2022/03/27 06:05:22;;;;;;;22.85;16.40;;;8.30;97.20;;;;;;1726106;23;20257;-71
2022/03/27 06:06:14;;;;;;;24.20;16.25;;;8.30;97.20;;;;;;1708139;29;20206;-71
2022/03/27 06:07:06;;;;;;;22.80;15.75;;;8.30;97.20;;;;;;1708192;29;20203;-71
2022/03/27 06:07:58;;;;;;;23.20;16.88;;;8.30;97.20;;;;;;1708162;29;20226;-71
2022/03/27 06:08:50;;;;;;;26.45;15.82;;;8.30;97.20;;;;;;1707465;29;20199;-71
2022/03/27 06:09:41;;;;;;;23.33;17.55;;;8.40;97.20;;;;;;1708126;29;20547;-71
2022/03/27 06:10:33;;;;;;;22.70;16.40;;;8.40;97.20;;;;;;1708065;29;20309;-71
2022/03/27 06:11:25;;;;;;;24.38;16.27;;;8.40;97.20;;;;;;1708107;29;20218;-71
2022/03/27 06:12:16;;;;;;;19.98;14.95;;;8.40;97.20;;;;;;1708044;29;20194;-71
2022/03/27 06:13:10;;;;;;;20.00;15.40;;;8.40;97.20;;;;;;1708138;29;20681;-71
2022/03/27 06:14:01;;;;;;;20.42;14.85;;;8.40;97.20;;;;;;1708162;29;20244;-71
2022/03/27 06:14:52;;;;;;;24.08;15.27;;;8.40;97.20;;;;;;1707955;29;20226;-71
2022/03/27 06:15:44;;;;;;;18.47;14.57;;;8.50;97.20;;;;;;1708086;29;20220;-71
2022/03/27 06:16:35;;;;;;;18.73;14.20;;;8.50;97.20;;;;;;1707580;29;20282;-71
2022/03/27 06:17:26;;;;;;;23.37;14.27;;;8.50;97.20;;;;;;1708173;29;20203;-71
2022/03/27 06:18:19;;;;;;;22.23;17.55;;;8.50;97.20;;;;;;1707510;29;20454;-71
2022/03/27 06:19:10;;;;;;;21.83;15.52;;;8.50;97.20;;;;;;1708097;29;20217;-71
2022/03/27 06:20:01;;;;;;;21.30;15.25;;;8.50;97.20;;;;;;1708019;29;20242;-71
2022/03/27 06:20:53;;;;;;;27.13;16.80;;;8.60;97.20;;;;;;1707979;29;20209;-71
2022/03/27 06:21:45;;;;;;;18.65;14.65;;;8.60;97.20;;;;;;1708048;29;20256;-71
2022/03/27 06:22:37;;;;;;;17.02;14.23;;;8.60;97.20;;;;;;1707999;29;20226;-71
2022/03/27 06:23:29;;;;;;;17.85;14.35;;;8.70;97.20;;;;;;1708099;29;20207;-71
2022/03/27 06:24:20;;;;;;;21.63;14.25;;;8.70;97.20;;;;;;1708037;29;20202;-71
2022/03/27 06:25:14;;;;;;;20.20;14.70;;;8.70;97.20;;;;;;1707856;29;20228;-71
2022/03/27 06:26:05;;;;;;;16.63;13.68;;;8.80;97.20;;;;;;1708013;29;20247;-71
2022/03/27 06:26:56;;;;;;;16.33;12.90;;;8.80;97.20;;;;;;1708013;29;20203;-71
2022/03/27 06:27:49;;;;;;;20.37;13.73;;;8.80;97.20;;;;;;1708068;29;20213;-71
2022/03/27 06:28:39;;;;;;;22.02;13.43;;;8.90;97.20;;;;;;1707755;29;20198;-71
2022/03/27 06:29:31;;;;;;;22.17;14.90;;;8.90;97.20;;;;;;1707966;29;20203;-71
2022/03/27 06:30:24;;;;;;;14.88;13.27;;;8.90;97.20;;;;;;1707747;29;20207;-71
2022/03/27 06:31:15;;;;;;;19.50;13.45;;;9.00;97.20;;;;;;1708028;29;20210;-71
2022/03/27 06:32:07;;;;;;;18.00;13.35;;;9.00;97.20;;;;;;1708051;29;20206;-71
2022/03/27 06:32:59;;;;;;;17.85;14.00;;;9.00;97.20;;;;;;1707965;29;20199;-71
2022/03/27 06:33:51;;;;;;;19.98;13.75;;;9.10;97.20;;;;;;1708032;29;20210;-71
2022/03/27 06:34:43;;;;;;;15.48;12.57;;;9.10;97.20;;;;;;1707952;29;20206;-71
2022/03/27 06:35:34;;;;;;;18.27;13.75;;;9.20;97.20;;;;;;1707988;29;20250;-71
2022/03/27 06:36:25;;;;;;;18.40;14.47;;;9.20;97.20;;;;;;1707993;29;20206;-71
2022/03/27 06:37:16;;;;;;;21.08;13.85;;;9.30;97.20;;;;;;1707925;29;20474;-71
2022/03/27 06:38:08;;;;;;;19.93;13.97;;;9.40;97.20;;;;;;1707783;29;20210;-71
2022/03/27 06:38:58;;;;;;;18.80;14.77;;;9.40;97.20;;;;;;1708066;29;20231;-71
2022/03/27 06:39:50;;;;;;;17.13;13.80;;;9.40;97.20;;;;;;1707845;29;20397;-71
2022/03/27 06:40:42;;;;;;;18.92;13.60;;;9.50;97.20;;;;;;1707931;29;20249;-71
2022/03/27 06:41:32;;;;;;;18.50;14.45;;;9.50;97.20;;;;;;1707656;29;20233;-71
2022/03/27 06:42:26;;;;;;;20.43;14.00;;;9.60;97.20;;;;;;1708024;29;20613;-71
2022/03/27 06:43:17;;;;;;;19.73;13.73;;;9.70;97.20;;;;;;1707924;29;20218;-71
2022/03/27 06:44:08;;;;;;;18.02;13.88;;;9.70;97.20;;;;;;1707995;29;20203;-71
2022/03/27 06:45:00;;;;;;;15.50;13.57;;;9.70;97.20;;;;;;1707847;29;20206;-71
2022/03/27 06:45:51;;;;;;;21.27;14.80;;;9.80;97.20;;;;;;1707943;29;20697;-71
2022/03/27 06:46:43;;;;;;;16.42;14.15;;;9.90;97.20;;;;;;1708024;29;20253;-71
2022/03/27 06:47:34;;;;;;;19.55;13.77;;;9.90;97.20;;;;;;1707918;29;20247;-71
2022/03/27 06:48:25;;;;;;;19.90;14.20;;;10.00;97.20;;;;;;1707804;29;20206;-71
2022/03/27 06:49:18;;;;;;;19.63;14.27;;;10.10;97.20;;;;;;1707840;29;20869;-71
2022/03/27 06:50:10;;;;;;;21.25;14.80;;;10.10;97.20;;;;;;1707966;29;20210;-71
2022/03/27 06:51:00;;;;;;;20.63;14.82;;;10.20;97.20;;;;;;1707873;29;20206;-71
2022/03/27 06:51:52;;;;;;;19.20;14.50;;;10.30;97.20;;;;;;1707824;29;20651;-71
2022/03/27 06:52:44;;;;;;;16.05;13.85;;;10.40;97.20;;;;;;1704778;29;20214;-71
2022/03/27 06:53:36;;;;;;;19.58;13.77;;;10.40;97.20;;;;;;1707931;29;20202;-71
2022/03/27 06:54:27;;;;;;;22.05;14.70;;;10.50;97.20;;;;;;1701683;29;20234;-71
2022/03/27 06:55:20;;;;;;;20.02;14.13;;;10.60;97.20;;;;;;1705894;29;20217;-71
2022/03/27 06:56:11;;;;;;;16.65;13.77;;;10.70;97.20;;;;;;1707915;29;20210;-71
2022/03/27 06:57:03;;;;;;;16.43;13.43;;;10.80;97.20;;;;;;1707818;29;20269;-71
2022/03/27 06:57:54;;;;;;;17.95;14.35;;;10.80;97.20;;;;;;1707703;29;20601;-71
2022/03/27 06:58:46;;;;;;;16.30;14.13;;;10.90;97.20;;;;;;1707409;29;20230;-71
2022/03/27 07:03:09;;;;;;;23.50;15.75;;;11.20;97.20;;;;;;1707869;29;20205;-71
2022/03/27 07:04:00;;;;;;;19.70;15.13;;;11.30;97.20;;;;;;1707812;29;20506;-71
2022/03/27 07:04:53;;;;;;;19.40;14.27;;;11.40;97.20;;;;;;1707580;29;20222;-71
2022/03/27 07:05:44;;;;;;;24.00;15.13;;;11.50;97.20;;;;;;1707727;29;20616;-71
2022/03/27 07:06:38;;;;;;;22.48;15.52;;;11.60;97.20;;;;;;1707738;29;20206;-71
2022/03/27 07:07:29;;;;;;;20.70;14.95;;;11.60;97.20;;;;;;1707794;29;20581;-71
2022/03/27 07:08:22;;;;;;;20.83;15.25;;;11.70;96.70;;;;;;1707555;29;20289;-71
2022/03/27 07:09:13;;;;;;;23.25;14.70;;;11.70;96.20;;;;;;1707678;29;20662;-71
2022/03/27 07:10:05;;;;;;;22.48;16.02;;;11.80;95.30;;;;;;1707817;29;20207;-71
2022/03/27 07:10:56;;;;;;;21.08;16.50;;;11.90;95.10;;;;;;1707820;29;20685;-71
2022/03/27 07:11:48;;;;;;;23.63;15.70;;;11.90;94.90;;;;;;1707467;29;20582;-71
2022/03/27 07:12:38;;;;;;;21.95;15.60;;;12.00;94.80;;;;;;1707600;29;20222;-71
2022/03/27 07:13:30;;;;;;;21.73;15.73;;;12.00;94.70;;;;;;1707762;29;20202;-71
2022/03/27 07:14:22;;;;;;;21.17;15.50;;;12.10;94.60;;;;;;1707687;29;20481;-71
2022/03/27 07:15:14;;;;;;;20.52;15.80;;;12.20;94.50;;;;;;1707723;29;20720;-72
2022/03/27 07:16:06;;;;;;;20.95;15.10;;;12.30;94.40;;;;;;1707781;29;20249;-71
2022/03/27 07:16:57;;;;;;;20.85;14.68;;;12.30;94.60;;;;;;1707584;29;20270;-71
2022/03/27 07:17:50;;;;;;;24.30;15.57;;;12.40;94.40;;;;;;1707740;29;20206;-71
2022/03/27 07:18:42;;;;;;;22.90;15.95;;;12.50;94.00;;;;;;1706948;29;20198;-70
2022/03/27 07:19:34;;;;;;;18.98;15.57;;;12.50;93.70;;;;;;1706930;29;20230;-71
2022/03/27 07:20:30;;;;;;;25.60;16.63;;;12.60;93.30;;;;;;1708290;28;20195;-71
2022/03/27 07:21:21;;;;;;;21.42;15.38;;;12.70;93.00;;;;;;1706474;29;20241;-71
2022/03/27 07:22:14;;;;;;;23.43;15.47;;;12.70;92.50;;;;;;1707610;29;20221;-71
2022/03/27 07:23:08;;;;;;;25.00;16.40;;;12.80;92.40;;;;;;1707198;29;20797;-71
2022/03/27 07:24:00;;;;;;;22.27;15.82;;;12.90;92.70;;;;;;1707037;29;20198;-71
2022/03/27 07:24:51;;;;;;;20.45;15.18;;;12.90;92.90;;;;;;1707215;29;20202;-71
2022/03/27 07:25:45;;;;;;;18.93;15.03;;;13.00;93.00;;;;;;1707683;29;20722;-71
2022/03/27 07:26:36;;;;;;;23.55;16.50;;;13.10;92.90;;;;;;1707692;29;20210;-71
2022/03/27 07:27:28;;;;;;;19.88;16.08;;;13.10;92.80;;;;;;1707697;29;20287;-71
2022/03/27 07:28:19;;;;;;;21.52;16.40;;;13.20;92.80;;;;;;1706924;29;20262;-71
2022/03/27 07:29:11;;;;;;;19.33;14.52;;;13.30;92.70;;;;;;1707216;29;20210;-71
2022/03/27 07:30:02;;;;;;;25.92;16.10;;;13.30;92.50;;;;;;1707179;29;20203;-71
2022/03/27 07:30:54;;;;;;;20.73;14.88;;;13.40;91.80;;;;;;1707584;29;20684;-71
2022/03/27 07:31:45;;;;;;;21.80;15.57;;;13.50;91.60;;;;;;1707308;29;20221;-71
2022/03/27 07:32:38;;;;;;;20.20;16.23;;;13.50;91.50;;;;;;1707595;29;20198;-71
2022/03/27 07:33:28;;;;;;;23.25;15.90;;;13.60;91.10;;;;;;1707301;29;20230;-71
2022/03/27 07:34:21;;;;;;;23.43;15.93;;;13.70;90.80;;;;;;1707480;29;20210;-71
2022/03/27 07:35:14;;;;;;;19.45;14.90;;;13.70;90.70;;;;;;1707493;29;20222;-71
2022/03/27 07:36:07;;;;;;;21.23;15.80;;;13.80;90.50;;;;;;1707550;29;20351;-71
2022/03/27 07:36:58;;;;;;;21.60;14.48;;;13.80;90.80;;;;;;1707134;29;20252;-71
2022/03/27 07:37:51;;;;;;;30.53;16.87;;;13.90;90.80;;;;;;1707543;29;20206;-71
2022/03/27 07:38:41;;;;;;;21.70;14.45;;;14.00;90.70;;;;;;1706659;29;20658;-71
2022/03/27 07:39:33;;;;;;;20.00;15.27;;;14.10;90.50;;;;;;1707407;29;20670;-71
2022/03/27 07:40:24;;;;;;;20.85;15.45;;;14.10;90.20;;;;;;1707522;29;20195;-71
2022/03/27 07:41:16;;;;;;;17.77;13.90;;;14.20;90.10;;;;;;1707455;29;20209;-71
2022/03/27 07:42:07;;;;;;;21.25;13.93;;;14.30;90.00;;;;;;1707233;29;21889;-71
2022/03/27 07:43:00;;;;;;;20.25;14.95;;;14.40;90.40;;;;;;1707309;29;20229;-71
2022/03/27 07:43:50;;;;;;;21.05;15.60;;;14.40;90.50;;;;;;1707188;29;20244;-71
2022/03/27 07:44:42;;;;;;;17.90;13.97;;;14.50;89.40;;;;;;1707155;29;20206;-71
2022/03/27 07:45:35;;;;;;;20.70;14.23;;;14.50;89.00;;;;;;1707311;29;20250;-70
2022/03/27 07:46:27;;;;;;;23.27;14.45;;;14.60;89.30;;;;;;1707578;29;20209;-71
2022/03/27 07:47:18;;;;;;;21.65;16.58;;;14.60;89.60;;;;;;1707530;29;20247;-71
2022/03/27 07:48:09;;;;;;;21.40;13.80;;;14.70;89.40;;;;;;1707211;29;20659;-71
2022/03/27 07:49:01;;;;;;;17.88;14.25;;;14.80;89.20;;;;;;1707430;29;20591;-71
2022/03/27 07:49:52;;;;;;;20.05;15.10;;;14.80;89.40;;;;;;1706844;29;20195;-71
2022/03/27 07:50:46;;;;;;;17.73;14.77;;;14.90;89.20;;;;;;1707126;29;20229;-71
2022/03/27 07:51:38;;;;;;;19.65;14.52;;;15.00;88.90;;;;;;1707212;29;20726;-71
2022/03/27 07:52:30;;;;;;;19.63;14.45;;;15.10;88.70;;;;;;1707208;29;20241;-71
2022/03/27 07:53:21;;;;;;;19.33;15.80;;;15.10;88.30;;;;;;1707351;29;20206;-71
2022/03/27 07:54:13;;;;;;;22.05;15.10;;;15.20;87.90;;;;;;1707419;29;20206;-71
2022/03/27 07:55:06;;;;;;;20.10;15.18;;;15.30;88.00;;;;;;1707368;29;20701;-71
2022/03/27 07:55:57;;;;;;;21.50;15.35;;;15.30;88.30;;;;;;1707091;29;20194;-71
2022/03/27 07:56:48;;;;;;;19.30;14.43;;;15.40;88.20;;;;;;1707443;29;20641;-70
2022/03/27 07:57:40;;;;;;;21.30;15.33;;;15.50;87.90;;;;;;1706997;29;20626;-71
2022/03/27 07:58:31;;;;;;;19.92;13.55;;;15.60;87.60;;;;;;1706781;29;20213;-71
2022/03/27 07:59:22;;;;;;;18.30;14.40;;;15.60;87.60;;;;;;1706549;29;20218;-71
2022/03/27 08:00:16;;;;;;;22.23;14.38;;;15.70;87.50;;;;;;1703503;29;20211;-71
2022/03/27 08:01:09;;;;;;;20.92;14.85;;;15.70;87.30;;;;;;1704295;29;20286;-71
2022/03/27 08:02:00;;;;;;;17.95;14.38;;;15.80;87.10;;;;;;1707403;29;20218;-71
2022/03/27 08:02:52;;;;;;;24.85;15.40;;;15.90;86.60;;;;;;1707389;29;20643;-71
2022/03/27 08:03:43;;;;;;;16.88;14.15;;;15.90;86.20;;;;;;1707452;29;20615;-71
2022/03/27 08:04:35;;;;;;;21.17;13.40;;;16.00;87.00;;;;;;1707447;29;20617;-71
2022/03/27 08:05:26;;;;;;;18.23;13.63;;;16.00;87.50;;;;;;1707138;29;20269;-73
2022/03/27 08:06:18;;;;;;;18.67;12.82;;;16.10;87.50;;;;;;1707442;29;20202;-75
2022/03/27 08:07:10;;;;;;;17.60;12.68;;;16.10;87.50;;;;;;1707299;29;20210;-73
2022/03/27 08:08:02;;;;;;;17.33;14.40;;;16.20;87.00;;;;;;1707020;29;20554;-72
2022/03/27 08:08:55;;;;;;;15.70;12.65;;;16.30;87.00;;;;;;1707304;29;20246;-74
2022/03/27 08:09:47;;;;;;;22.20;14.23;;;16.30;86.60;;;;;;1707380;29;20266;-72
2022/03/27 08:10:38;;;;;;;18.08;14.57;;;16.40;85.90;;;;;;1707360;29;20250;-74
2022/03/27 08:11:30;;;;;;;17.90;13.60;;;16.40;85.70;;;;;;1707466;29;20202;-73
2022/03/27 08:12:21;;;;;;;21.98;13.48;;;16.50;85.80;;;;;;1707378;29;20450;-73
2022/03/27 08:13:13;;;;;;;23.23;13.97;;;16.50;85.90;;;;;;1707056;28;20286;-75
2022/03/27 08:14:03;;;;;;;16.42;13.27;;;16.60;85.90;;;;;;1706983;29;20446;-74
2022/03/27 08:14:55;;;;;;;16.73;12.47;;;16.70;85.70;;;;;;1707311;29;20202;-74
2022/03/27 08:15:46;;;;;;;21.83;12.85;;;16.70;85.50;;;;;;1707462;29;20254;-73
2022/03/27 08:16:39;;;;;;;15.40;12.77;;;16.80;85.20;;;;;;1707368;29;20199;-73
2022/03/27 08:17:29;;;;;;;24.35;13.32;;;16.90;85.10;;;;;;1707368;29;20230;-74
2022/03/27 08:18:21;;;;;;;19.77;14.67;;;17.00;84.80;;;;;;1707110;29;20198;-74
2022/03/27 08:19:12;;;;;;;15.90;13.57;;;17.00;84.50;;;;;;1707215;29;20454;-74
2022/03/27 08:20:05;;;;;;;21.03;14.13;;;17.10;84.10;;;;;;1707404;29;20221;-73
2022/03/27 08:20:55;;;;;;;17.48;12.63;;;17.10;84.00;;;;;;1707348;29;20237;-74
2022/03/27 08:21:47;;;;;;;16.97;13.83;;;17.20;83.80;;;;;;1707365;29;20203;-73
2022/03/27 08:22:40;;;;;;;17.38;12.55;;;17.20;83.40;;;;;;1707300;29;20273;-74
2022/03/27 08:23:31;;;;;;;18.75;11.50;;;17.30;83.30;;;;;;1707254;29;20226;-74
2022/03/27 08:24:22;;;;;;;18.75;13.07;;;17.40;83.10;;;;;;1707431;29;20283;-75
2022/03/27 08:26:55;;;;;;;17.67;12.75;;;17.40;83.10;;;;;;1707270;29;20714;-74
2022/03/27 08:27:34;;;;;;;16.20;13.23;;;17.50;82.20;;;;;;1707302;29;20249;-73
2022/03/27 08:28:25;;;;;;;17.93;13.23;;;17.60;81.80;;;;;;1707056;29;20341;-73
2022/03/27 08:29:16;;;;;;;15.90;13.50;;;17.60;81.90;;;;;;1707218;29;20202;-73
2022/03/27 08:30:09;;;;;;;17.83;13.05;;;17.70;82.20;;;;;;1707294;29;20449;-73
2022/03/27 08:31:01;;;;;;;15.50;12.70;;;17.80;82.30;;;;;;1707214;29;20205;-74
2022/03/27 08:31:53;;;;;;;18.90;13.25;;;17.90;82.30;;;;;;1707260;29;20206;-75
2022/03/27 08:32:44;;;;;;;15.90;12.23;;;17.90;82.10;;;;;;1707282;29;20198;-74
2022/03/27 08:33:35;;;;;;;16.45;13.57;;;18.00;81.90;;;;;;1707327;29;20230;-73
2022/03/27 08:34:28;;;;;;;19.03;13.20;;;18.10;81.70;;;;;;1707363;29;20209;-73
2022/03/27 08:35:19;;;;;;;18.33;14.43;;;18.10;81.40;;;;;;1707238;29;20222;-73
2022/03/27 08:36:11;;;;;;;14.65;12.77;;;18.20;81.00;;;;;;1707264;29;20202;-72
2022/03/27 08:37:04;;;;;;;17.70;13.68;;;18.30;80.70;;;;;;1707285;29;20609;-73
2022/03/27 08:37:57;;;;;;;19.42;13.27;;;18.30;80.20;;;;;;1707233;29;20198;-72
2022/03/27 08:38:47;;;;;;;15.68;13.25;;;18.30;80.40;;;;;;1706994;29;20240;-73
2022/03/27 08:39:39;;;;;;;17.27;13.40;;;18.30;80.60;;;;;;1707106;29;20222;-72
2022/03/27 08:40:31;;;;;;;19.85;14.30;;;18.40;80.40;;;;;;1707252;29;20207;-72
2022/03/27 08:41:24;;;;;;;18.77;13.20;;;18.50;80.20;;;;;;1707226;29;20249;-73
2022/03/27 08:42:20;;;;;;;19.20;13.90;;;18.50;80.00;;;;;;1707229;29;20306;-73
2022/03/27 08:43:13;;;;;;;15.73;13.32;;;18.60;80.00;;;;;;1707284;29;20242;-73
2022/03/27 08:44:06;;;;;;;17.33;12.77;;;18.60;80.10;;;;;;1707332;29;20211;-72
2022/03/27 08:44:57;;;;;;;21.38;14.48;;;18.70;80.10;;;;;;1707124;29;20217;-72
2022/03/27 08:45:48;;;;;;;17.00;13.93;;;18.80;79.60;;;;;;1707252;29;20249;-72
2022/03/27 08:46:41;;;;;;;20.42;14.10;;;18.80;79.50;;;;;;1706651;29;20213;-73
2022/03/27 08:47:33;;;;;;;19.33;14.45;;;18.90;79.30;;;;;;1707222;29;21190;-72
2022/03/27 08:48:24;;;;;;;16.58;13.35;;;18.90;79.40;;;;;;1706881;29;20687;-73
2022/03/27 08:49:30;;;;;;;17.88;13.35;;;19.00;79.50;;;;;;1707106;29;20571;-72
2022/03/27 08:50:29;;;;;;;22.77;15.05;;;19.10;79.40;;;;;;1707200;29;20293;-72
2022/03/27 08:51:30;;;;;;;18.98;13.65;;;19.20;79.20;;;;;;1707254;29;20722;-72
2022/03/27 08:52:39;;;;;;;18.80;13.38;;;19.30;79.10;;;;;;1707188;29;20206;-71
2022/03/27 08:53:39;;;;;;;19.40;13.95;;;19.40;79.00;;;;;;1707195;29;20198;-71
2022/03/27 08:54:38;;;;;;;20.55;14.93;;;19.50;78.60;;;;;;1707363;29;20206;-73
2022/03/27 08:55:40;;;;;;;18.98;13.27;;;19.50;78.70;;;;;;1707235;29;20219;-70
2022/03/27 08:56:32;;;;;;;18.55;14.15;;;19.60;78.80;;;;;;1707232;29;20207;-69
2022/03/27 08:57:25;;;;;;;17.52;13.70;;;19.70;78.70;;;;;;1707240;29;20237;-69
2022/03/27 08:58:19;;;;;;;18.35;13.77;;;19.80;78.70;;;;;;1706757;29;20206;-70
2022/03/27 08:59:13;;;;;;;18.13;14.23;;;19.90;78.80;;;;;;1707117;29;20264;-69
2022/03/27 09:00:05;;;;;;;16.70;13.77;;;20.00;78.60;;;;;;1707213;29;20202;-71
2022/03/27 09:00:57;;;;;;;19.77;14.40;;;20.00;78.10;;;;;;1707096;29;20198;-70
2022/03/27 09:01:48;;;;;;;17.33;13.00;;;20.20;77.40;;;;;;1707178;29;20230;-70
2022/03/27 09:02:41;;;;;;;17.90;14.15;;;20.20;77.60;;;;;;1707250;29;20646;-70
2022/03/27 09:03:32;;;;;;;20.88;14.52;;;20.40;77.80;;;;;;1707223;29;20231;-70
2022/03/27 09:04:24;;;;;;;18.98;14.13;;;20.50;77.80;;;;;;1707212;29;20265;-71
2022/03/27 09:05:15;;;;;;;20.15;14.98;;;20.80;77.50;;;;;;1707029;29;20675;-71
2022/03/27 09:06:08;;;;;;;16.75;14.18;;;21.60;76.40;;;;;;1707298;29;20229;-70
2022/03/27 09:07:01;;;;;;;19.42;14.05;;;22.70;75.00;;;;;;1707135;29;20210;-71
2022/03/27 09:07:57;;;;;;;17.10;13.40;;;23.90;73.60;;;;;;1707250;29;20221;-71
2022/03/27 09:08:50;;;;;;;17.85;15.15;;;24.60;72.00;;;;;;1706749;29;20269;-71
2022/03/27 09:09:41;;;;;;;16.90;14.45;;;25.20;70.70;;;;;;1706859;29;20203;-73
2022/03/27 09:10:32;;;;;;;16.33;13.35;;;26.10;69.90;;;;;;1707083;29;20682;-71
2022/03/27 09:11:24;;;;;;;18.67;13.80;;;27.30;68.30;;;;;;1706877;29;20742;-71
2022/03/27 09:12:17;;;;;;;20.48;15.57;;;28.60;66.80;;;;;;1706778;29;20198;-71
2022/03/27 09:13:12;;;;;;;17.77;14.43;;;29.90;64.80;;;;;;1707059;29;20633;-72
2022/03/27 09:14:03;;;;;;;18.00;15.88;;;31.20;62.60;;;;;;1705088;29;20290;-71
2022/03/27 09:14:56;;;;;;;18.13;14.70;;;32.40;60.70;;;;;;1706978;29;20249;-71
2022/03/27 09:15:59;;;;;;;20.05;14.43;;;33.50;59.20;;;;;;1707074;29;20735;-72
2022/03/27 09:17:07;;;;;;;16.60;13.77;;;34.70;57.30;;;;;;1706998;29;20203;-72
2022/03/27 09:18:01;;;;;;;15.48;13.70;;;36.00;55.60;;;;;;1707056;29;20202;-71
2022/03/27 09:18:55;;;;;;;18.85;14.27;;;36.80;55.00;;;;;;1706455;29;20222;-71
2022/03/27 09:19:48;;;;;;;19.42;15.02;;;37.70;54.10;;;;;;1706892;29;20237;-72
2022/03/27 09:20:42;;;;;;;16.27;13.65;;;38.40;53.00;;;;;;1702541;29;20714;-72
2022/03/27 09:21:33;;;;;;;16.58;14.43;;;39.20;52.10;;;;;;1706424;28;20696;-71
2022/03/27 09:22:31;;;;;;;15.37;13.10;;;39.80;51.20;;;;;;1706440;28;20680;-71
2022/03/27 09:23:24;;;;;;;15.73;14.00;;;40.50;50.20;;;;;;1706394;29;20257;-71
2022/03/27 09:24:17;;;;;;;16.90;13.70;;;41.00;49.50;;;;;;1703493;29;20199;-71
2022/03/27 09:25:08;;;;;;;15.43;13.67;;;41.60;48.80;;;;;;1702884;29;20239;-71
2022/03/27 09:26:01;;;;;;;16.07;13.33;;;42.10;48.20;;;;;;1707814;29;20446;-71
2022/03/27 09:26:59;;;;;;;16.23;14.53;;;42.60;47.80;;;;;;1707436;29;20445;-71
2022/03/27 09:27:58;;;;;;;16.27;12.83;;;43.10;46.70;;;;;;1708082;29;20794;-71
2022/03/27 09:28:52;;;;;;;16.73;13.50;;;43.60;46.10;;;;;;1707542;29;20450;-71
2022/03/27 09:29:58;;;;;;;16.67;13.87;;;44.00;46.10;;;;;;1707881;29;20446;-71
2022/03/27 09:30:49;;;;;;;19.03;14.07;;;44.40;45.00;;;;;;1707687;29;20954;-72
2022/03/27 09:31:41;;;;;;;16.90;13.13;;;44.80;45.30;;;;;;1707989;29;20458;-72